createdAt,value
2019-06-01T00:00:42.118Z,66.90
2019-06-01T00:03:10.827Z,70.90
2019-06-01T00:05:40.471Z,68.50
2019-06-01T00:08:09.085Z,66.80
2019-06-01T00:10:37.536Z,68.90
2019-06-01T00:13:05.960Z,70.20
2019-06-01T00:15:34.492Z,76.40
2019-06-01T00:18:03.000Z,74.80
2019-06-01T00:20:31.501Z,69.10
2019-06-01T00:22:59.953Z,61.90
2019-06-01T00:25:28.409Z,71.70
2019-06-01T00:27:56.888Z,78.20
2019-06-01T00:30:27.288Z,85.70
2019-06-01T00:32:55.485Z,85.70
2019-06-01T00:35:23.965Z,85.70
2019-06-01T00:37:52.557Z,83.80
2019-06-01T00:40:21.073Z,82.40
2019-06-01T00:42:50.277Z,81.40
2019-06-01T00:45:18.949Z,82.90
2019-06-01T00:47:48.685Z,86.00
2019-06-01T00:50:17.643Z,87.30
2019-06-01T00:52:47.197Z,90.00
2019-06-01T00:55:15.773Z,88.10
2019-06-01T00:57:45.571Z,85.20
2019-06-01T01:00:16.037Z,83.40
2019-06-01T01:02:44.497Z,77.60
2019-06-01T01:05:18.734Z,75.00
2019-06-01T01:07:48.694Z,73.40
2019-06-01T01:10:17.735Z,72.90
2019-06-01T01:13:05.716Z,73.30
2019-06-01T01:15:34.749Z,72.20
2019-06-01T01:18:03.433Z,74.80
2019-06-01T01:20:32.045Z,74.70
2019-06-01T01:23:00.481Z,79.60
2019-06-01T01:25:29.027Z,79.60
2019-06-01T01:27:57.707Z,83.50
2019-06-01T01:30:26.682Z,82.80
2019-06-01T01:32:55.769Z,85.70
2019-06-01T01:35:24.668Z,89.80
2019-06-01T01:37:58.186Z,88.00
2019-06-01T01:40:27.956Z,88.50
2019-06-01T01:42:58.958Z,84.90
2019-06-01T01:45:27.951Z,83.00
2019-06-01T01:47:57.199Z,81.90
2019-06-01T01:50:27.694Z,82.20
2019-06-01T01:52:57.037Z,82.20
2019-06-01T01:55:26.034Z,81.80
2019-06-01T01:57:55.420Z,81.60
2019-06-01T02:00:33.122Z,83.50
2019-06-01T02:03:02.332Z,85.40
2019-06-01T02:05:30.981Z,87.00
2019-06-01T02:08:00.106Z,85.40
2019-06-01T02:10:29.105Z,82.00
2019-06-01T02:12:57.629Z,80.90
2019-06-01T02:15:26.203Z,80.80
2019-06-01T02:17:55.961Z,82.50
2019-06-01T02:20:24.928Z,82.00
2019-06-01T02:22:54.604Z,81.80
2019-06-01T02:25:23.459Z,88.50
2019-06-01T02:27:53.012Z,87.10
2019-06-01T02:30:21.853Z,87.50
2019-06-01T02:32:50.282Z,87.60
2019-06-01T02:35:19.009Z,86.30
2019-06-01T02:37:47.535Z,89.40
2019-06-01T02:40:18.172Z,88.40
2019-06-01T02:42:47.470Z,89.60
2019-06-01T02:45:17.618Z,89.50
2019-06-01T02:47:46.186Z,89.20
2019-06-01T02:50:16.129Z,87.20
2019-06-01T02:52:44.556Z,87.40
2019-06-01T02:55:16.225Z,86.20
2019-06-01T02:57:44.721Z,86.10
2019-06-01T03:00:14.685Z,85.00
2019-06-01T03:02:44.037Z,82.70
2019-06-01T03:05:12.540Z,86.30
2019-06-01T03:07:43.378Z,86.90
2019-06-01T03:10:12.629Z,84.40
2019-06-01T03:12:44.145Z,83.80
2019-06-01T03:15:15.152Z,84.50
2019-06-01T03:17:49.022Z,83.60
2019-06-01T03:20:19.412Z,84.60
2019-06-01T03:22:50.971Z,85.60
2019-06-01T03:25:19.865Z,85.20
2019-06-01T03:27:51.414Z,87.00
2019-06-01T03:30:45.611Z,87.70
2019-06-01T03:33:14.279Z,90.50
2019-06-01T03:35:43.169Z,91.20
2019-06-01T03:38:11.686Z,92.00
2019-06-01T03:40:40.217Z,90.30
2019-06-01T03:43:09.390Z,85.20
2019-06-01T03:45:38.035Z,81.60
2019-06-01T03:48:06.763Z,79.40
2019-06-01T03:50:35.837Z,82.20
2019-06-01T03:53:04.265Z,81.60
2019-06-01T03:55:32.840Z,81.60
2019-06-01T03:58:01.289Z,78.40
2019-06-01T04:00:29.816Z,77.40
2019-06-01T04:02:58.408Z,77.70
2019-06-01T04:05:26.829Z,75.00
2019-06-01T04:07:55.257Z,74.90
2019-06-01T04:10:23.755Z,76.20
2019-06-01T04:12:52.976Z,79.50
2019-06-01T04:15:21.409Z,79.30
2019-06-01T04:17:49.913Z,78.20
2019-06-01T04:20:18.337Z,79.50
2019-06-01T04:22:46.776Z,78.10
2019-06-01T04:25:15.229Z,75.10
2019-06-01T04:27:43.664Z,76.30
2019-06-01T04:30:13.726Z,76.20
2019-06-01T04:32:49.833Z,75.50
2019-06-01T04:35:13.232Z,75.20
2019-06-01T04:37:41.831Z,74.90
2019-06-01T04:40:11.473Z,75.40
2019-06-01T04:42:39.976Z,76.70
2019-06-01T04:45:09.160Z,78.10
2019-06-01T04:47:38.890Z,80.00
2019-06-01T04:50:08.752Z,77.70
2019-06-01T04:52:37.429Z,74.70
2019-06-01T04:55:08.963Z,73.10
2019-06-01T04:57:37.580Z,76.40
2019-06-01T05:00:19.863Z,77.00
2019-06-01T05:02:38.000Z,75.40
2019-06-01T05:05:07.318Z,71.60
2019-06-01T05:07:35.804Z,56.50
2019-06-01T05:10:07.301Z,1.00
2019-06-01T05:12:36.071Z,28.20
2019-06-01T05:15:07.598Z,1.00
2019-06-01T05:17:36.191Z,1.00
2019-06-01T05:20:10.435Z,32.60
2019-06-01T05:22:38.957Z,1.00
2019-06-01T05:25:09.018Z,99.90
2019-06-01T05:27:37.650Z,1.00
2019-06-01T05:30:09.512Z,1.00
2019-06-01T05:32:37.989Z,1.00
2019-06-01T05:35:07.727Z,1.00
2019-06-01T05:37:36.421Z,1.00
2019-06-01T05:40:12.467Z,1.00
2019-06-01T05:42:40.924Z,1.00
2019-06-01T05:45:11.182Z,1.00
2019-06-01T05:47:39.869Z,99.90
2019-06-01T05:50:08.833Z,99.90
2019-06-01T05:52:37.956Z,99.90
2019-06-01T05:55:07.303Z,99.90
2019-06-01T05:57:35.760Z,99.90
2019-06-01T06:00:07.362Z,99.90
2019-06-01T06:02:35.938Z,99.90
2019-06-01T06:05:06.314Z,99.90
2019-06-01T06:07:34.757Z,99.90
2019-06-01T06:10:03.498Z,99.90
2019-06-01T06:12:31.983Z,99.90
2019-06-01T06:15:00.429Z,99.90
2019-06-01T06:17:28.884Z,99.90
2019-06-01T06:19:57.317Z,99.90
2019-06-01T06:22:25.781Z,99.90
2019-06-01T06:24:54.288Z,99.90
2019-06-01T06:27:22.811Z,99.90
2019-06-01T06:29:51.357Z,99.90
2019-06-01T06:32:19.848Z,99.90
2019-06-01T06:37:17.572Z,99.90
2019-06-01T06:39:46.148Z,99.90
2019-06-01T06:42:14.580Z,99.90
2019-06-01T06:44:43.037Z,99.90
2019-06-01T06:47:11.657Z,99.90
2019-06-01T06:49:40.106Z,99.90
2019-06-01T06:52:08.675Z,99.90
2019-06-01T06:54:37.108Z,99.90
2019-06-01T06:57:05.565Z,99.90
2019-06-01T06:59:34.064Z,99.90
2019-06-01T07:02:02.497Z,99.90
2019-06-01T07:04:30.950Z,99.90
2019-06-01T07:06:59.417Z,99.90
2019-06-01T07:09:28.344Z,99.90
2019-06-01T07:11:56.949Z,99.90
2019-06-01T07:14:25.524Z,99.90
2019-06-01T07:16:54.097Z,99.90
2019-06-01T07:19:23.763Z,99.90
2019-06-01T07:21:52.459Z,99.90
2019-06-01T07:24:21.780Z,99.90
2019-06-01T07:26:50.354Z,99.90
2019-06-01T07:29:19.947Z,99.90
2019-06-01T07:31:48.723Z,99.90
2019-06-01T07:34:31.057Z,99.90
2019-06-01T07:36:47.396Z,99.90
2019-06-01T07:39:15.990Z,99.90
2019-06-01T07:41:44.566Z,99.90
2019-06-01T07:44:13.177Z,99.90
2019-06-01T07:46:41.610Z,99.90
2019-06-01T07:49:10.042Z,99.90
2019-06-01T07:51:38.481Z,99.90
2019-06-01T07:54:06.918Z,99.90
2019-06-01T07:56:35.366Z,99.90
2019-06-01T07:59:03.861Z,99.90
2019-06-01T08:01:32.882Z,99.90
2019-06-01T08:04:01.515Z,99.90
2019-06-01T08:06:32.200Z,99.90
2019-06-01T08:09:00.203Z,99.90
2019-06-01T08:11:30.089Z,99.90
2019-06-01T08:13:58.812Z,99.90
2019-06-01T08:16:27.901Z,99.90
2019-06-01T08:18:56.540Z,99.90
2019-06-01T08:21:26.043Z,99.90
2019-06-01T08:23:54.609Z,99.90
2019-06-01T08:26:24.302Z,99.90
2019-06-01T08:28:52.975Z,99.90
2019-06-01T08:31:22.502Z,99.90
2019-06-01T08:33:51.157Z,99.90
2019-06-01T08:36:19.673Z,99.90
2019-06-01T08:38:48.101Z,99.90
2019-06-01T08:41:16.529Z,99.90
2019-06-01T08:43:45.056Z,99.90
2019-06-01T08:46:13.561Z,99.90
2019-06-01T08:48:42.141Z,99.90
2019-06-01T08:51:10.739Z,99.90
2019-06-01T08:53:39.168Z,99.90
2019-06-01T08:56:07.625Z,99.90
2019-06-01T08:58:36.055Z,99.90
2019-06-01T09:01:04.553Z,99.90
2019-06-01T09:03:33.875Z,99.90
2019-06-01T09:06:03.207Z,99.90
2019-06-01T09:08:33.144Z,99.90
2019-06-01T09:11:01.784Z,99.90
2019-06-01T09:13:31.284Z,99.90
2019-06-01T09:15:59.875Z,99.90
2019-06-01T09:18:29.822Z,99.90
2019-06-01T09:20:58.485Z,99.90
2019-06-01T09:23:27.594Z,99.90
2019-06-01T09:25:56.224Z,99.90
2019-06-01T09:28:25.677Z,99.90
2019-06-01T09:30:54.373Z,99.90
2019-06-01T09:33:23.069Z,99.90
2019-06-01T09:35:55.955Z,99.90
2019-06-01T09:38:21.810Z,99.90
2019-06-01T09:40:50.350Z,99.90
2019-06-01T09:43:19.064Z,99.90
2019-06-01T09:45:47.491Z,99.90
2019-06-01T09:48:15.919Z,99.90
2019-06-01T09:50:44.433Z,99.90
2019-06-01T09:53:12.856Z,99.90
2019-06-01T09:55:41.290Z,99.90
2019-06-01T09:58:09.734Z,99.90
2019-06-01T10:00:43.044Z,99.90
2019-06-01T10:03:08.594Z,99.90
2019-06-01T10:05:37.033Z,99.90
2019-06-01T10:08:05.458Z,99.90
2019-06-01T10:10:34.022Z,99.90
2019-06-01T10:13:02.528Z,99.90
2019-06-01T10:15:32.407Z,99.90
2019-06-01T10:18:01.322Z,99.90
2019-06-01T10:20:30.691Z,99.90
2019-06-01T10:22:59.155Z,99.90
2019-06-01T10:25:27.664Z,99.90
2019-06-01T10:27:56.161Z,99.90
2019-06-01T10:30:24.665Z,99.90
2019-06-01T10:32:53.096Z,99.90
2019-06-01T10:35:21.616Z,99.90
2019-06-01T10:37:50.200Z,99.90
2019-06-01T10:40:18.697Z,99.90
2019-06-01T10:42:47.221Z,99.90
2019-06-01T10:45:15.886Z,99.90
2019-06-01T10:47:44.315Z,99.90
2019-06-01T10:50:16.541Z,99.90
2019-06-01T10:52:43.385Z,99.90
2019-06-01T10:55:11.993Z,99.90
2019-06-01T10:57:40.717Z,99.90
2019-06-01T11:00:11.154Z,99.90
2019-06-01T11:02:40.692Z,99.90
2019-06-01T11:05:09.805Z,99.90
2019-06-01T11:07:39.054Z,99.90
2019-06-01T11:10:09.872Z,99.90
2019-06-01T11:12:39.114Z,99.90
2019-06-01T11:15:09.374Z,99.90
2019-06-01T11:17:39.105Z,99.90
2019-06-01T11:20:08.534Z,99.90
2019-06-01T11:22:37.548Z,99.90
2019-06-01T11:25:07.151Z,99.90
2019-06-01T11:27:35.759Z,99.90
2019-06-01T11:30:08.474Z,99.90
2019-06-01T11:32:39.536Z,99.90
2019-06-01T11:35:09.695Z,99.90
2019-06-01T11:37:38.489Z,99.90
2019-06-01T11:40:07.780Z,99.90
2019-06-01T11:42:36.934Z,99.90
2019-06-01T11:45:07.899Z,99.90
2019-06-01T11:47:36.811Z,99.90
2019-06-01T11:50:08.783Z,99.90
2019-06-01T11:52:37.524Z,99.90
2019-06-01T11:55:09.164Z,99.90
2019-06-01T11:57:37.701Z,99.90
2019-06-01T12:00:11.178Z,99.90
2019-06-01T12:02:39.761Z,99.90
2019-06-01T12:05:08.836Z,99.90
2019-06-01T12:07:37.683Z,99.90
2019-06-01T12:10:08.553Z,99.90
2019-06-01T12:12:38.218Z,99.90
2019-06-01T12:15:08.457Z,99.90
2019-06-01T12:17:36.992Z,99.90
2019-06-01T12:20:08.964Z,99.90
2019-06-01T12:22:38.683Z,99.90
2019-06-01T12:25:07.360Z,99.90
2019-06-01T12:27:37.013Z,99.90
2019-06-01T12:30:08.233Z,99.90
2019-06-01T12:32:37.898Z,99.90
2019-06-01T12:35:10.144Z,99.90
2019-06-01T12:37:58.318Z,99.90
2019-06-01T12:40:09.453Z,99.90
2019-06-01T12:42:37.955Z,99.90
2019-06-01T12:45:14.881Z,99.90
2019-06-01T12:47:43.938Z,99.90
2019-06-01T12:50:12.807Z,99.90
2019-06-01T12:52:42.254Z,99.90
2019-06-01T12:55:11.106Z,99.90
2019-06-01T12:57:40.707Z,99.90
2019-06-01T13:00:10.241Z,99.90
2019-06-01T13:02:40.138Z,99.90
2019-06-01T13:05:08.953Z,99.90
2019-06-01T13:07:51.144Z,99.90
2019-06-01T13:10:07.887Z,99.90
2019-06-01T13:12:36.401Z,99.90
2019-06-01T13:15:08.573Z,99.90
2019-06-01T13:17:37.271Z,99.90
2019-06-01T13:20:08.574Z,99.90
2019-06-01T13:22:37.001Z,99.90
2019-06-01T13:25:07.421Z,99.90
2019-06-01T13:27:35.915Z,99.90
2019-06-01T13:30:08.789Z,99.90
2019-06-01T13:32:37.264Z,99.90
2019-06-01T13:35:09.077Z,99.90
2019-06-01T13:37:37.522Z,99.90
2019-06-01T13:40:06.988Z,99.90
2019-06-01T13:42:35.429Z,99.90
2019-06-01T13:45:06.319Z,99.90
2019-06-01T13:47:34.793Z,99.90
2019-06-01T13:50:06.671Z,99.90
2019-06-01T13:52:35.432Z,99.90
2019-06-01T13:55:05.965Z,99.90
2019-06-01T13:57:34.389Z,99.90
2019-06-01T14:00:04.224Z,99.90
2019-06-01T14:02:32.724Z,99.90
2019-06-01T14:05:01.171Z,99.90
2019-06-01T14:07:29.684Z,99.90
2019-06-01T14:09:58.244Z,99.90
2019-06-01T14:12:26.694Z,99.90
2019-06-01T14:14:55.582Z,99.90
2019-06-01T14:17:24.324Z,99.90
2019-06-01T14:19:53.823Z,99.90
2019-06-01T14:22:22.465Z,99.90
2019-06-01T14:25:06.596Z,99.90
2019-06-01T14:27:21.120Z,99.90
2019-06-01T14:29:50.274Z,99.90
2019-06-01T14:32:18.928Z,99.90
2019-06-01T14:34:48.559Z,99.90
2019-06-01T14:37:17.062Z,99.90
2019-06-01T14:39:46.672Z,99.90
2019-06-01T14:42:15.269Z,99.90
2019-06-01T14:44:43.788Z,99.90
2019-06-01T14:47:12.217Z,99.90
2019-06-01T14:49:40.731Z,99.90
2019-06-01T14:52:09.165Z,99.90
2019-06-01T14:54:37.668Z,99.90
2019-06-01T14:57:06.401Z,99.90
2019-06-01T14:59:34.948Z,99.90
2019-06-01T15:02:03.373Z,99.90
2019-06-01T15:04:32.005Z,99.90
2019-06-01T15:07:00.433Z,99.90
2019-06-01T15:09:29.005Z,99.90
2019-06-01T15:11:58.644Z,99.90
2019-06-01T15:14:27.241Z,99.90
2019-06-01T15:16:56.202Z,99.90
2019-06-01T15:19:24.812Z,99.90
2019-06-01T15:21:54.118Z,99.90
2019-06-01T15:24:23.030Z,99.90
2019-06-01T15:26:52.418Z,99.90
2019-06-01T15:29:21.070Z,99.90
2019-06-01T15:31:51.000Z,99.90
2019-06-01T15:34:19.717Z,99.90
2019-06-01T15:36:48.172Z,99.90
2019-06-01T15:39:24.738Z,99.90
2019-06-01T15:41:46.771Z,99.90
2019-06-01T15:44:15.272Z,99.90
2019-06-01T15:46:43.712Z,99.90
2019-06-01T15:49:12.209Z,99.90
2019-06-01T15:51:40.656Z,99.90
2019-06-01T15:54:09.085Z,99.90
2019-06-01T15:56:37.512Z,99.90
2019-06-01T15:59:06.232Z,99.90
2019-06-01T16:01:34.675Z,99.90
2019-06-01T16:04:03.466Z,99.90
2019-06-01T16:06:32.012Z,99.90
2019-06-01T16:09:01.669Z,99.90
2019-06-01T16:11:30.532Z,99.90
2019-06-01T16:13:59.885Z,99.90
2019-06-01T16:16:28.469Z,99.90
2019-06-01T16:19:02.174Z,99.90
2019-06-01T16:21:27.142Z,99.90
2019-06-01T16:23:56.264Z,99.90
2019-06-01T16:26:25.172Z,99.90
2019-06-01T16:28:54.351Z,99.90
2019-06-01T16:31:22.983Z,99.90
2019-06-01T16:33:51.630Z,99.90
2019-06-01T16:36:20.125Z,99.90
2019-06-01T16:38:48.552Z,99.90
2019-06-01T16:41:17.086Z,99.90
2019-06-01T16:43:45.581Z,99.90
2019-06-01T16:46:14.154Z,99.90
2019-06-01T16:48:42.589Z,99.90
2019-06-01T16:51:11.087Z,99.90
2019-06-01T16:53:39.752Z,99.90
2019-06-01T16:56:08.248Z,99.90
2019-06-01T16:58:36.741Z,99.90
2019-06-01T17:01:06.570Z,99.90
2019-06-01T17:03:35.188Z,99.90
2019-06-01T17:06:04.787Z,99.90
2019-06-01T17:08:33.406Z,99.90
2019-06-01T17:11:02.767Z,99.90
2019-06-01T17:13:31.414Z,99.90
2019-06-01T17:16:00.987Z,99.90
2019-06-01T17:18:29.647Z,99.90
2019-06-01T17:20:59.199Z,99.90
2019-06-01T17:23:30.554Z,99.90
2019-06-01T17:25:58.383Z,99.90
2019-06-01T17:28:27.028Z,99.90
2019-06-01T17:30:55.532Z,99.90
2019-06-01T17:33:23.969Z,99.90
2019-06-01T17:35:52.430Z,99.90
2019-06-01T17:38:20.863Z,99.90
2019-06-01T17:40:49.288Z,99.90
2019-06-01T17:43:17.793Z,99.90
2019-06-01T17:45:46.216Z,99.90
2019-06-01T17:48:25.829Z,99.90
2019-06-01T17:50:44.821Z,99.90
2019-06-01T17:53:13.356Z,99.90
2019-06-01T17:55:42.296Z,99.90
2019-06-01T17:58:12.426Z,99.90
2019-06-01T18:00:41.178Z,99.90
2019-06-01T18:03:10.010Z,99.90
2019-06-01T18:05:38.926Z,99.90
2019-06-01T18:08:08.097Z,99.90
2019-06-01T18:10:52.392Z,99.90
2019-06-01T18:13:08.739Z,99.90
2019-06-01T18:15:37.416Z,99.90
2019-06-01T18:18:06.751Z,99.90
2019-06-01T18:20:35.853Z,99.90
2019-06-01T18:23:07.187Z,99.90
2019-06-01T18:25:35.034Z,99.90
2019-06-01T18:28:04.521Z,99.90
2019-06-01T18:30:33.371Z,99.90
2019-06-01T18:33:02.972Z,99.90
2019-06-01T18:35:32.583Z,99.90
2019-06-01T18:38:01.077Z,99.90
2019-06-01T18:40:29.576Z,99.90
2019-06-01T18:43:01.127Z,99.90
2019-06-01T18:45:29.845Z,99.90
2019-06-01T18:47:58.459Z,99.90
2019-06-01T18:50:27.143Z,99.90
2019-06-01T18:52:55.582Z,99.90
2019-06-01T18:55:27.417Z,99.90
2019-06-01T18:57:57.602Z,99.90
2019-06-01T19:00:26.185Z,99.90
2019-06-01T19:02:54.633Z,99.90
2019-06-01T19:05:23.156Z,99.90
2019-06-01T19:07:51.587Z,99.90
2019-06-01T19:10:20.180Z,99.90
2019-06-01T19:12:48.628Z,99.90
2019-06-01T19:15:27.816Z,99.90
2019-06-01T19:17:47.841Z,99.90
2019-06-01T19:20:17.073Z,99.90
2019-06-01T19:22:45.680Z,99.90
2019-06-01T19:25:17.028Z,99.90
2019-06-01T19:27:45.708Z,99.90
2019-06-01T19:30:17.274Z,99.90
2019-06-01T19:32:45.753Z,99.90
2019-06-01T19:35:15.378Z,99.90
2019-06-01T19:37:44.293Z,99.90
2019-06-01T19:40:13.374Z,99.90
2019-06-01T19:42:42.061Z,99.90
2019-06-01T19:45:23.478Z,1.00
2019-06-01T19:47:40.820Z,99.90
2019-06-01T19:50:10.302Z,1.00
2019-06-01T19:52:38.895Z,1.00
2019-06-01T19:55:08.776Z,99.90
2019-06-01T19:57:37.594Z,99.90
2019-06-01T20:00:07.629Z,1.00
2019-06-01T20:02:36.175Z,99.90
2019-06-01T20:05:05.771Z,1.00
2019-06-01T20:07:34.284Z,1.00
2019-06-01T20:10:03.281Z,1.00
2019-06-01T20:12:31.771Z,1.00
2019-06-01T20:15:00.200Z,1.00
2019-06-01T20:17:28.828Z,26.70
2019-06-01T20:19:57.253Z,1.00
2019-06-01T20:22:25.697Z,1.00
2019-06-01T20:24:54.152Z,33.60
2019-06-01T20:27:22.638Z,99.90
2019-06-01T20:29:51.077Z,1.00
2019-06-01T20:32:20.042Z,1.00
2019-06-01T20:34:48.584Z,99.90
2019-06-01T20:37:18.078Z,99.90
2019-06-01T20:39:46.695Z,1.00
2019-06-01T20:42:23.305Z,1.00
2019-06-01T20:44:45.342Z,1.00
2019-06-01T20:47:14.729Z,99.90
2019-06-01T20:49:43.459Z,1.00
2019-06-01T20:52:12.718Z,1.00
2019-06-01T20:54:41.452Z,1.00
2019-06-01T20:57:09.913Z,99.90
2019-06-01T20:59:38.402Z,79.70
2019-06-01T21:02:06.906Z,1.00
2019-06-01T21:04:35.376Z,1.00
2019-06-01T21:07:04.069Z,99.90
2019-06-01T21:09:32.580Z,99.90
2019-06-01T21:12:01.004Z,99.90
2019-06-01T21:14:29.662Z,1.00
2019-06-01T21:16:58.100Z,8.20
2019-06-01T21:19:26.554Z,99.90
2019-06-01T21:21:55.040Z,1.00
2019-06-01T21:24:25.097Z,1.00
2019-06-01T21:26:53.746Z,1.00
2019-06-01T21:29:22.960Z,99.90
2019-06-01T21:31:51.536Z,99.90
2019-06-01T21:34:20.931Z,1.00
2019-06-01T21:36:50.163Z,1.00
2019-06-01T21:39:19.632Z,1.00
2019-06-01T21:41:48.320Z,1.00
2019-06-01T21:44:17.442Z,1.00
2019-06-01T21:46:45.983Z,1.00
2019-06-01T21:49:15.533Z,1.00
2019-06-01T21:51:44.200Z,1.00
2019-06-01T21:54:12.617Z,1.00
2019-06-01T21:56:41.044Z,1.00
2019-06-01T21:59:09.832Z,1.00
2019-06-01T22:01:38.413Z,1.00
2019-06-01T22:04:06.974Z,1.00
2019-06-01T22:06:35.582Z,1.00
2019-06-01T22:09:05.841Z,1.00
2019-06-01T22:11:34.659Z,1.00
2019-06-01T22:14:03.108Z,1.00
2019-06-01T22:16:31.638Z,1.00
2019-06-01T22:19:00.121Z,1.00
2019-06-01T22:21:28.566Z,1.00
2019-06-01T22:23:57.104Z,1.00
2019-06-01T22:26:26.378Z,1.00
2019-06-01T22:28:55.036Z,1.00
2019-06-01T22:31:24.590Z,1.00
2019-06-01T22:33:53.139Z,1.00
2019-06-01T22:36:22.618Z,1.00
2019-06-01T22:38:51.262Z,1.00
2019-06-01T22:41:19.924Z,1.00
2019-06-01T22:43:49.063Z,1.00
2019-06-01T22:46:17.505Z,1.00
2019-06-01T22:48:45.927Z,1.00
2019-06-01T22:51:14.370Z,1.00
2019-06-01T22:53:42.804Z,1.00
2019-06-01T22:56:11.218Z,1.00
2019-06-01T22:58:39.693Z,1.00
2019-06-01T23:01:08.125Z,1.00
2019-06-01T23:03:36.548Z,1.70
2019-06-01T23:06:05.164Z,1.00
2019-06-01T23:08:33.601Z,1.00
2019-06-01T23:11:02.026Z,1.00
2019-06-01T23:13:30.600Z,1.00
2019-06-01T23:15:59.184Z,1.00
2019-06-01T23:18:27.959Z,2.00
2019-06-01T23:20:56.547Z,4.40
2019-06-01T23:23:25.989Z,14.90
2019-06-01T23:25:54.731Z,19.40
2019-06-01T23:28:24.203Z,26.10
2019-06-01T23:30:52.917Z,30.70
2019-06-01T23:33:22.679Z,29.80
2019-06-01T23:35:51.280Z,29.80
2019-06-01T23:38:19.709Z,36.50
2019-06-01T23:40:48.174Z,36.10
2019-06-01T23:43:16.605Z,37.20
2019-06-01T23:45:45.037Z,41.70
2019-06-01T23:48:13.481Z,38.10
2019-06-01T23:50:41.946Z,40.70
2019-06-01T23:53:13.706Z,43.50
2019-06-01T23:55:40.548Z,49.50
2019-06-01T23:58:08.973Z,44.40
